Time;durP1;ratioP1;P1;durP2;ratioP2;P2;SDS_P1;SDS_P2;PMS_P1;PMS_P2;Temp;Humidity;BMP_temperature;BMP_pressure;BME280_temperature;BME280_humidity;BME280_pressure;Samples;Min_cycle;Max_cycle;Signal;HPM_P1;HPM_P2
2021/04/18 00:00:41;;;;;;;6.13;4.38;;;19.00;43.60;;;;;;5123939;27;20517;-38
2021/04/18 00:03:08;;;;;;;5.55;4.43;;;19.00;43.60;;;;;;5106508;27;20043;-38
2021/04/18 00:05:34;;;;;;;5.82;4.22;;;19.00;43.60;;;;;;5124527;27;20043;-38
2021/04/18 00:08:04;;;;;;;5.78;4.18;;;19.00;43.60;;;;;;5123647;27;20492;-38
2021/04/18 00:10:33;;;;;;;5.90;4.18;;;19.00;43.60;;;;;;5124210;27;20505;-37
2021/04/18 00:13:01;;;;;;;6.72;4.55;;;19.00;43.60;;;;;;5125100;27;20138;-38
2021/04/18 00:15:28;;;;;;;6.15;4.40;;;19.00;43.60;;;;;;5123920;27;20082;-38
2021/04/18 00:17:54;;;;;;;5.55;4.25;;;19.00;43.60;;;;;;5123746;27;20141;-37
2021/04/18 00:20:22;;;;;;;6.18;4.63;;;19.00;43.60;;;;;;5124539;27;20100;-38
2021/04/18 00:22:49;;;;;;;5.18;4.15;;;19.00;43.60;;;;;;5122520;27;20495;-37
2021/04/18 00:25:19;;;;;;;5.10;4.05;;;19.00;43.60;;;;;;5123629;27;20068;-38
2021/04/18 00:27:49;;;;;;;5.47;4.15;;;19.00;43.60;;;;;;5123794;27;20047;-37
2021/04/18 00:30:19;;;;;;;6.13;4.10;;;19.00;43.60;;;;;;5123859;27;20445;-37
2021/04/18 00:32:45;;;;;;;6.28;4.78;;;19.00;43.60;;;;;;5122410;27;20137;-38
2021/04/18 00:35:14;;;;;;;5.57;4.18;;;19.00;43.60;;;;;;5123391;27;20115;-38
2021/04/18 00:37:40;;;;;;;5.70;4.55;;;18.90;43.50;;;;;;5122640;27;20626;-38
2021/04/18 00:40:10;;;;;;;6.13;4.57;;;19.00;43.60;;;;;;5124507;27;20443;-38
2021/04/18 00:42:37;;;;;;;6.20;4.47;;;19.00;43.60;;;;;;5123999;27;20070;-38
2021/04/18 00:45:06;;;;;;;5.30;4.15;;;19.00;43.60;;;;;;5123447;27;20039;-38
2021/04/18 00:47:33;;;;;;;4.75;3.55;;;19.00;43.60;;;;;;5124124;27;20074;-39
2021/04/18 00:50:01;;;;;;;5.32;4.03;;;19.00;43.80;;;;;;5123664;27;20130;-38
2021/04/18 00:52:27;;;;;;;6.80;4.43;;;19.00;43.60;;;;;;5123106;27;20040;-38
2021/04/18 00:54:54;;;;;;;4.80;3.70;;;19.00;43.60;;;;;;5123311;27;20127;-38
2021/04/18 00:57:21;;;;;;;4.93;4.07;;;19.00;43.60;;;;;;5124054;27;20055;-38
2021/04/18 00:59:49;;;;;;;4.97;4.22;;;19.00;43.60;;;;;;5123392;27;20096;-39
2021/04/18 01:02:16;;;;;;;6.10;4.72;;;18.90;43.50;;;;;;5123521;27;20055;-38
2021/04/18 01:04:43;;;;;;;4.80;4.00;;;18.90;43.50;;;;;;5122010;27;20048;-37
2021/04/18 01:07:09;;;;;;;4.50;3.88;;;18.90;43.50;;;;;;5123724;27;20064;-38
2021/04/18 01:09:36;;;;;;;5.75;4.18;;;18.90;43.50;;;;;;5122748;27;20494;-38
2021/04/18 01:12:03;;;;;;;5.80;4.20;;;18.90;43.50;;;;;;5122951;27;20131;-38
2021/04/18 01:14:29;;;;;;;6.05;4.25;;;19.00;43.60;;;;;;5121883;27;20092;-38
2021/04/18 01:16:56;;;;;;;4.95;4.03;;;18.90;43.50;;;;;;5123215;27;20105;-38
2021/04/18 01:19:23;;;;;;;7.15;3.92;;;18.90;43.50;;;;;;5122526;27;20050;-38
2021/04/18 01:21:49;;;;;;;5.32;4.05;;;19.00;43.60;;;;;;5121924;27;20074;-38
2021/04/18 01:24:16;;;;;;;6.75;4.05;;;18.90;43.50;;;;;;5122420;27;20058;-38
2021/04/18 01:26:44;;;;;;;5.20;4.00;;;18.90;43.50;;;;;;5123793;27;20437;-37
2021/04/18 01:29:11;;;;;;;6.05;4.40;;;19.00;43.60;;;;;;5122018;27;20050;-38
2021/04/18 01:31:38;;;;;;;6.97;4.57;;;18.90;43.50;;;;;;5122281;27;20044;-37
2021/04/18 01:34:04;;;;;;;4.53;3.72;;;19.00;43.60;;;;;;5122524;27;20087;-39
2021/04/18 01:36:31;;;;;;;4.78;3.75;;;19.00;43.60;;;;;;5121640;27;20055;-39
2021/04/18 01:38:58;;;;;;;5.35;4.00;;;18.90;43.50;;;;;;5121779;27;20039;-37
2021/04/18 01:41:25;;;;;;;5.03;3.80;;;18.90;43.50;;;;;;5121732;27;20046;-38
2021/04/18 01:43:51;;;;;;;4.93;3.63;;;19.00;43.60;;;;;;5123919;27;20116;-38
2021/04/18 01:46:19;;;;;;;5.03;4.05;;;19.00;43.50;;;;;;5122429;27;20475;-37
2021/04/18 01:48:46;;;;;;;5.78;4.25;;;19.00;43.60;;;;;;5121062;27;20096;-38
2021/04/18 01:51:12;;;;;;;5.22;4.00;;;18.90;43.40;;;;;;5122313;27;20142;-37
2021/04/18 01:53:39;;;;;;;5.13;4.10;;;18.90;43.50;;;;;;5123685;27;20126;-38
2021/04/18 01:56:07;;;;;;;4.90;4.10;;;19.00;43.50;;;;;;5121771;28;20135;-38
2021/04/18 01:58:34;;;;;;;5.72;4.47;;;19.00;43.50;;;;;;5121849;28;20076;-38
2021/04/18 02:01:01;;;;;;;4.63;3.65;;;18.90;43.50;;;;;;5123029;27;20097;-38
2021/04/18 02:03:28;;;;;;;5.43;4.07;;;18.90;43.40;;;;;;5122350;28;20065;-38
2021/04/18 02:05:55;;;;;;;4.50;3.88;;;19.00;43.60;;;;;;5123030;28;20049;-38
2021/04/18 02:08:22;;;;;;;4.93;4.05;;;18.90;43.40;;;;;;5122864;27;20066;-38
2021/04/18 02:10:48;;;;;;;5.28;4.07;;;18.90;43.50;;;;;;5122229;28;20047;-38
2021/04/18 02:13:15;;;;;;;6.38;4.25;;;18.90;43.50;;;;;;5103073;28;20071;-37
2021/04/18 02:15:42;;;;;;;4.88;3.92;;;18.90;43.50;;;;;;5121864;27;20487;-37
2021/04/18 02:18:08;;;;;;;4.45;3.70;;;18.90;43.50;;;;;;5121702;28;20050;-38
2021/04/18 02:20:35;;;;;;;5.15;4.15;;;18.90;43.50;;;;;;5121694;27;20063;-37
2021/04/18 02:23:02;;;;;;;5.88;4.40;;;18.90;43.50;;;;;;5123112;27;20043;-37
2021/04/18 02:25:29;;;;;;;5.05;4.35;;;18.90;43.50;;;;;;5120968;27;20209;-38
2021/04/18 02:27:56;;;;;;;4.28;3.53;;;19.00;43.50;;;;;;5122216;28;20101;-38
2021/04/18 02:30:23;;;;;;;5.57;4.20;;;18.90;43.40;;;;;;5124172;27;20108;-38
2021/04/18 02:32:50;;;;;;;4.93;3.80;;;18.90;43.40;;;;;;5127668;27;20044;-38
2021/04/18 02:35:17;;;;;;;4.20;3.30;;;18.90;43.40;;;;;;5124691;27;20059;-38
2021/04/18 02:37:48;;;;;;;5.78;3.95;;;18.90;43.50;;;;;;5126268;27;20136;-38
2021/04/18 02:40:15;;;;;;;4.85;3.83;;;18.90;43.40;;;;;;5125489;27;20047;-37
2021/04/18 02:42:42;;;;;;;4.93;3.85;;;18.90;43.40;;;;;;5126103;27;20055;-37
2021/04/18 02:45:10;;;;;;;4.85;3.60;;;18.90;43.40;;;;;;5125434;27;20047;-37
2021/04/18 02:47:37;;;;;;;5.75;4.10;;;18.90;43.40;;;;;;5126287;27;20089;-39
2021/04/18 02:50:06;;;;;;;4.63;3.95;;;19.00;43.50;;;;;;5125889;27;20047;-38
2021/04/18 02:52:33;;;;;;;5.13;4.03;;;18.90;43.40;;;;;;5125411;27;20096;-38
2021/04/18 02:55:00;;;;;;;4.35;3.38;;;18.90;43.40;;;;;;5126480;27;20498;-38
2021/04/18 02:57:27;;;;;;;5.07;3.78;;;19.00;43.50;;;;;;5126339;27;20043;-38
2021/04/18 02:59:53;;;;;;;4.97;3.72;;;19.00;43.50;;;;;;5126038;27;20068;-38
2021/04/18 03:02:20;;;;;;;5.85;3.92;;;18.90;43.40;;;;;;5124685;27;20080;-38
2021/04/18 03:04:47;;;;;;;4.47;3.53;;;18.90;43.40;;;;;;5124991;27;20047;-38
2021/04/18 03:07:14;;;;;;;4.38;3.65;;;18.90;43.40;;;;;;5126029;27;20039;-38
2021/04/18 03:09:40;;;;;;;4.88;3.70;;;18.90;43.40;;;;;;5126356;27;20095;-38
2021/04/18 03:12:07;;;;;;;5.22;3.70;;;19.00;43.50;;;;;;5125910;27;20101;-38
2021/04/18 03:14:34;;;;;;;4.35;3.45;;;18.90;43.40;;;;;;5125934;27;20054;-38
2021/04/18 03:17:01;;;;;;;4.90;3.83;;;18.90;43.40;;;;;;5125849;27;20498;-39
2021/04/18 03:19:27;;;;;;;4.65;3.53;;;18.90;43.40;;;;;;5125387;27;20063;-37
2021/04/18 03:21:55;;;;;;;4.82;3.22;;;18.90;43.40;;;;;;5126342;27;20051;-38
2021/04/18 03:24:23;;;;;;;5.32;3.88;;;18.90;43.40;;;;;;5125462;27;20044;-38
2021/04/18 03:26:51;;;;;;;4.80;3.72;;;18.90;43.40;;;;;;5124192;27;20067;-38
2021/04/18 03:29:17;;;;;;;4.60;3.70;;;18.90;43.40;;;;;;5126175;27;20047;-38
2021/04/18 03:31:44;;;;;;;5.28;4.30;;;18.90;43.40;;;;;;5124102;27;20094;-38
2021/04/18 03:34:11;;;;;;;5.28;3.85;;;18.90;43.40;;;;;;5124568;27;20048;-37
2021/04/18 03:36:37;;;;;;;4.35;3.50;;;18.90;43.40;;;;;;5124933;27;20058;-38
2021/04/18 03:39:04;;;;;;;4.07;3.50;;;18.90;43.40;;;;;;5126447;27;20079;-38
2021/04/18 03:41:31;;;;;;;4.75;3.70;;;18.90;43.40;;;;;;5123672;27;20142;-38
2021/04/18 03:43:57;;;;;;;4.93;3.65;;;18.90;43.50;;;;;;5125149;27;20062;-38
2021/04/18 03:46:24;;;;;;;5.32;3.90;;;18.90;43.40;;;;;;5123928;27;20042;-38
2021/04/18 03:48:51;;;;;;;4.90;3.58;;;18.90;43.50;;;;;;5124841;27;20056;-38
2021/04/18 03:51:17;;;;;;;4.13;3.60;;;18.90;43.40;;;;;;5125063;27;20084;-39
2021/04/18 03:53:44;;;;;;;4.63;3.80;;;18.90;43.40;;;;;;5124804;27;20150;-38
2021/04/18 03:56:11;;;;;;;5.28;3.72;;;19.00;43.50;;;;;;5124878;27;20051;-38
2021/04/18 03:58:37;;;;;;;4.47;3.60;;;18.90;43.40;;;;;;5124302;27;20121;-38
2021/04/18 04:01:04;;;;;;;3.67;3.30;;;18.90;43.40;;;;;;5123042;27;20047;-38
2021/04/18 04:03:31;;;;;;;4.78;3.65;;;18.90;43.40;;;;;;5124781;27;20047;-38
2021/04/18 04:05:58;;;;;;;4.38;3.60;;;18.90;43.40;;;;;;5125249;27;20039;-38
2021/04/18 04:08:24;;;;;;;4.57;3.45;;;18.90;43.40;;;;;;5123878;27;20483;-37
2021/04/18 04:10:51;;;;;;;4.35;3.30;;;18.90;43.40;;;;;;5125037;27;20116;-38
2021/04/18 04:13:17;;;;;;;3.88;3.30;;;18.90;43.40;;;;;;5124086;27;20092;-38
2021/04/18 04:15:44;;;;;;;4.53;3.92;;;18.90;43.40;;;;;;5124399;27;20090;-38
2021/04/18 04:18:11;;;;;;;4.55;3.30;;;18.90;43.40;;;;;;5124162;27;20055;-38
2021/04/18 04:20:37;;;;;;;4.32;3.55;;;18.90;43.40;;;;;;5125305;27;20482;-38
2021/04/18 04:23:04;;;;;;;3.90;3.40;;;18.90;43.40;;;;;;5124791;27;20494;-38
2021/04/18 04:25:32;;;;;;;5.57;3.95;;;18.90;43.40;;;;;;5123364;27;20051;-38
2021/04/18 04:28:00;;;;;;;4.65;3.58;;;18.90;43.40;;;;;;5123816;27;20059;-38
2021/04/18 04:30:27;;;;;;;4.57;3.50;;;18.90;43.40;;;;;;5123971;27;20050;-38
2021/04/18 04:32:53;;;;;;;5.65;3.38;;;18.90;43.40;;;;;;5124291;27;20120;-38
2021/04/18 04:35:21;;;;;;;3.95;3.13;;;18.90;43.40;;;;;;5124415;27;20074;-38
2021/04/18 04:37:47;;;;;;;5.28;3.80;;;18.90;43.40;;;;;;5124598;27;20059;-38
2021/04/18 04:40:14;;;;;;;4.20;3.42;;;18.90;43.40;;;;;;5123592;27;20040;-38
2021/04/18 04:42:41;;;;;;;3.75;3.17;;;18.90;43.40;;;;;;5123006;27;20419;-38
2021/04/18 04:45:08;;;;;;;4.38;3.42;;;18.90;43.40;;;;;;5122189;27;20134;-38
2021/04/18 04:47:35;;;;;;;5.72;3.47;;;18.90;43.40;;;;;;5122634;27;20035;-38
2021/04/18 04:50:03;;;;;;;4.43;3.65;;;18.90;43.40;;;;;;5123465;27;20071;-38
2021/04/18 04:52:30;;;;;;;4.05;2.97;;;18.90;43.40;;;;;;5122402;27;20088;-39
2021/04/18 04:54:58;;;;;;;3.95;3.55;;;18.90;43.40;;;;;;5123118;27;20047;-38
2021/04/18 04:57:24;;;;;;;4.10;3.30;;;18.90;43.40;;;;;;5124196;27;20105;-41
2021/04/18 04:59:51;;;;;;;4.53;3.70;;;19.00;43.50;;;;;;5122047;27;20096;-40
2021/04/18 05:02:17;;;;;;;4.75;3.60;;;18.90;43.40;;;;;;5122569;27;20067;-38
2021/04/18 05:04:44;;;;;;;3.85;3.38;;;18.90;43.40;;;;;;5122730;27;20046;-38
2021/04/18 05:07:11;;;;;;;4.10;3.08;;;18.90;43.40;;;;;;5122859;27;20099;-37
2021/04/18 05:09:38;;;;;;;5.03;3.83;;;18.90;43.40;;;;;;5123701;27;20412;-39
2021/04/18 05:12:05;;;;;;;3.83;3.22;;;18.90;43.40;;;;;;5122120;27;20491;-38
2021/04/18 05:14:32;;;;;;;3.90;3.38;;;18.90;43.40;;;;;;5123246;27;20136;-38
2021/04/18 05:16:59;;;;;;;3.65;3.10;;;18.90;43.40;;;;;;5123290;27;20403;-38
2021/04/18 05:19:26;;;;;;;3.83;3.15;;;18.90;43.40;;;;;;5122559;27;20103;-38
2021/04/18 05:21:53;;;;;;;4.00;3.40;;;18.90;43.40;;;;;;5123072;27;20084;-38
2021/04/18 05:24:19;;;;;;;4.22;3.25;;;18.90;43.40;;;;;;5123512;27;20486;-37
2021/04/18 05:26:46;;;;;;;4.70;3.60;;;18.90;43.40;;;;;;5123365;27;20137;-38
2021/04/18 05:29:14;;;;;;;3.90;3.20;;;18.90;43.40;;;;;;5123604;27;20070;-39
2021/04/18 05:31:41;;;;;;;4.47;3.60;;;18.90;43.40;;;;;;5122640;27;20540;-38
2021/04/18 05:34:08;;;;;;;3.72;3.08;;;18.90;44.00;;;;;;5122297;27;20048;-39
2021/04/18 05:36:35;;;;;;;4.25;3.38;;;18.90;43.40;;;;;;5123555;27;20381;-38
2021/04/18 05:39:02;;;;;;;3.90;3.30;;;18.90;43.40;;;;;;5121727;27;20075;-39
2021/04/18 05:41:29;;;;;;;3.50;2.92;;;18.90;43.40;;;;;;5123397;27;20177;-38
2021/04/18 05:43:55;;;;;;;4.38;3.30;;;18.90;43.40;;;;;;5122889;27;20099;-38
2021/04/18 05:46:22;;;;;;;3.85;3.10;;;18.90;43.40;;;;;;5121777;27;20073;-38
2021/04/18 05:48:49;;;;;;;4.10;3.17;;;18.90;43.40;;;;;;5121801;27;20054;-38
2021/04/18 05:51:15;;;;;;;4.28;3.15;;;18.90;43.40;;;;;;5123313;27;20122;-38
2021/04/18 05:53:42;;;;;;;4.32;3.30;;;18.90;43.40;;;;;;5121785;27;20074;-38
2021/04/18 05:56:08;;;;;;;3.95;3.45;;;18.90;43.40;;;;;;5104496;28;20071;-38
2021/04/18 05:58:35;;;;;;;3.65;3.03;;;18.90;43.40;;;;;;5120478;28;20052;-40
2021/04/18 06:01:01;;;;;;;3.88;3.00;;;18.90;43.40;;;;;;5121137;27;20047;-38
2021/04/18 06:03:28;;;;;;;3.83;3.30;;;18.90;43.40;;;;;;5123066;27;20086;-38
2021/04/18 06:05:55;;;;;;;4.25;3.00;;;18.90;43.40;;;;;;5124351;27;20039;-38
2021/04/18 06:08:22;;;;;;;5.25;3.28;;;18.90;43.40;;;;;;5126156;27;20116;-38
2021/04/18 06:10:49;;;;;;;3.83;3.08;;;18.90;43.40;;;;;;5125829;27;20120;-38
2021/04/18 06:13:16;;;;;;;4.28;3.00;;;18.90;43.40;;;;;;5108533;27;20097;-38
2021/04/18 06:15:43;;;;;;;3.53;3.00;;;18.90;43.40;;;;;;5125709;27;20043;-39
2021/04/18 06:18:09;;;;;;;4.30;3.40;;;18.90;43.40;;;;;;5127694;27;20057;-38
2021/04/18 06:20:36;;;;;;;3.42;3.13;;;18.90;43.40;;;;;;5126199;27;20059;-39
2021/04/18 06:23:04;;;;;;;3.33;3.00;;;18.90;43.40;;;;;;5107500;27;20127;-37
2021/04/18 06:25:32;;;;;;;4.22;3.10;;;18.90;43.40;;;;;;5126393;27;20047;-38
2021/04/18 06:27:58;;;;;;;4.25;3.20;;;18.90;43.40;;;;;;5126078;27;20063;-38
2021/04/18 06:30:25;;;;;;;3.30;2.90;;;18.90;43.40;;;;;;5126553;27;20491;-39
2021/04/18 06:32:52;;;;;;;3.60;3.22;;;18.90;43.40;;;;;;5125914;27;20089;-38
2021/04/18 06:35:19;;;;;;;3.45;3.15;;;18.90;43.40;;;;;;5126352;27;20088;-38
2021/04/18 06:37:45;;;;;;;3.78;3.13;;;18.90;43.30;;;;;;5124896;27;20044;-38
2021/04/18 06:40:13;;;;;;;4.00;3.28;;;18.90;43.30;;;;;;5125486;27;20564;-38
2021/04/18 06:42:42;;;;;;;3.97;2.85;;;18.90;43.40;;;;;;5125666;27;20051;-38
2021/04/18 06:45:11;;;;;;;3.92;3.20;;;18.90;43.40;;;;;;5126381;27;20075;-38
2021/04/18 06:47:39;;;;;;;3.75;2.97;;;18.90;43.40;;;;;;5125644;27;20047;-38
2021/04/18 06:50:07;;;;;;;3.88;3.15;;;18.90;43.30;;;;;;5125784;27;20050;-38
2021/04/18 06:52:35;;;;;;;4.00;3.20;;;18.90;43.30;;;;;;5126536;27;20487;-39
2021/04/18 06:55:03;;;;;;;3.20;2.90;;;18.90;43.30;;;;;;5125396;27;20096;-38
2021/04/18 06:57:29;;;;;;;4.03;3.03;;;18.90;43.30;;;;;;5125273;27;20083;-38
2021/04/18 06:59:56;;;;;;;4.25;3.17;;;18.90;43.30;;;;;;5124711;27;20079;-38
2021/04/18 07:02:31;;;;;;;4.07;3.17;;;18.90;43.30;;;;;;5125452;27;20051;-38
2021/04/18 07:05:01;;;;;;;3.72;3.20;;;18.90;43.30;;;;;;5124679;27;20063;-38
2021/04/18 07:07:30;;;;;;;4.05;2.97;;;18.90;43.30;;;;;;5125130;27;20548;-38
2021/04/18 07:09:58;;;;;;;3.25;2.75;;;18.90;43.30;;;;;;5124997;27;20121;-38
2021/04/18 07:12:29;;;;;;;3.63;2.95;;;18.90;43.30;;;;;;5126162;27;20043;-37
2021/04/18 07:14:57;;;;;;;3.50;3.10;;;18.90;43.30;;;;;;5108189;27;20503;-38
2021/04/18 07:17:25;;;;;;;3.90;2.88;;;18.90;43.40;;;;;;5125812;27;20043;-37
2021/04/18 07:20:13;;;;;;;4.07;2.95;;;18.90;43.30;;;;;;5126089;27;20123;-38
2021/04/18 07:22:40;;;;;;;3.85;2.83;;;18.90;43.40;;;;;;5107416;27;20523;-38
2021/04/18 07:25:08;;;;;;;4.10;3.10;;;18.90;43.30;;;;;;5126339;27;20066;-37
2021/04/18 07:27:52;;;;;;;4.47;3.20;;;18.90;43.30;;;;;;5125073;27;20078;-38
2021/04/18 07:30:23;;;;;;;4.57;2.88;;;18.90;43.30;;;;;;5125139;27;20053;-37
2021/04/18 07:33:07;;;;;;;4.40;2.95;;;18.90;43.30;;;;;;5125928;27;20583;-38
2021/04/18 07:35:41;;;;;;;3.10;2.50;;;18.90;43.30;;;;;;5124132;27;20119;-39
2021/04/18 07:38:28;;;;;;;4.55;3.22;;;18.90;43.30;;;;;;5126247;27;20066;-38
2021/04/18 07:41:20;;;;;;;3.67;2.67;;;18.90;43.30;;;;;;5124180;27;20047;-38
2021/04/18 07:43:48;;;;;;;4.03;2.88;;;18.90;43.30;;;;;;5125891;27;20104;-38
2021/04/18 07:46:16;;;;;;;3.47;2.92;;;18.90;43.40;;;;;;5125897;27;20044;-38
2021/04/18 07:48:44;;;;;;;3.03;2.65;;;18.90;43.30;;;;;;5125328;27;20045;-38
2021/04/18 07:51:11;;;;;;;3.72;2.92;;;18.90;43.30;;;;;;5107796;27;20075;-39
2021/04/18 07:53:40;;;;;;;3.65;2.72;;;18.90;43.30;;;;;;5106366;27;20047;-38
2021/04/18 07:56:09;;;;;;;4.10;2.80;;;18.90;43.30;;;;;;5123354;27;20047;-38
2021/04/18 07:58:41;;;;;;;3.78;2.88;;;18.90;43.30;;;;;;5124344;27;20051;-38
2021/04/18 08:01:08;;;;;;;3.42;3.10;;;18.90;43.30;;;;;;5124107;27;20119;-38
2021/04/18 08:03:36;;;;;;;3.10;2.70;;;18.90;43.30;;;;;;5107005;27;20080;-39
2021/04/18 08:06:05;;;;;;;3.78;3.15;;;18.90;43.30;;;;;;5125535;27;20410;-38
2021/04/18 08:08:47;;;;;;;3.60;2.92;;;18.90;43.20;;;;;;5123965;27;20556;-39
2021/04/18 08:11:15;;;;;;;3.40;2.70;;;18.90;43.30;;;;;;5124795;27;20055;-38
2021/04/18 08:13:48;;;;;;;3.33;2.80;;;18.90;43.20;;;;;;5124462;27;20134;-39
2021/04/18 08:16:25;;;;;;;3.53;2.97;;;18.90;43.30;;;;;;5124436;27;20060;-38
2021/04/18 08:18:52;;;;;;;4.35;3.15;;;18.90;43.20;;;;;;5126150;27;20044;-38
2021/04/18 08:21:37;;;;;;;3.33;2.90;;;18.90;43.30;;;;;;5125287;27;20494;-39
2021/04/18 08:24:24;;;;;;;3.65;3.08;;;18.90;43.20;;;;;;5123861;27;20075;-39
2021/04/18 08:27:14;;;;;;;3.20;2.75;;;18.90;43.30;;;;;;5123566;27;20120;-38
2021/04/18 08:30:05;;;;;;;3.88;3.00;;;18.90;43.20;;;;;;5122963;27;20048;-39
2021/04/18 08:32:48;;;;;;;3.50;2.85;;;18.90;43.30;;;;;;5124606;27;20116;-39
2021/04/18 08:35:21;;;;;;;3.58;2.75;;;18.90;43.30;;;;;;5122375;27;20043;-38
2021/04/18 08:38:12;;;;;;;3.67;3.00;;;18.90;43.20;;;;;;5123221;27;20463;-38
2021/04/18 08:40:41;;;;;;;3.28;2.63;;;18.90;43.20;;;;;;5123759;27;20048;-39
2021/04/18 08:43:24;;;;;;;3.85;2.95;;;18.90;43.20;;;;;;5122265;27;20055;-38
2021/04/18 08:45:54;;;;;;;3.47;2.90;;;18.90;43.20;;;;;;5125305;27;20165;-38
2021/04/18 08:48:21;;;;;;;3.40;2.88;;;18.90;43.20;;;;;;5124038;27;20555;-36
2021/04/18 08:50:52;;;;;;;3.50;2.88;;;18.90;43.30;;;;;;5123662;27;20559;-36
2021/04/18 08:53:18;;;;;;;3.85;3.05;;;18.90;43.20;;;;;;5124067;27;20118;-36
2021/04/18 08:55:59;;;;;;;2.78;2.42;;;18.90;43.20;;;;;;5124049;27;20091;-38
2021/04/18 08:58:33;;;;;;;3.58;2.83;;;18.90;43.20;;;;;;5124328;27;20061;-39
2021/04/18 09:01:05;;;;;;;3.38;2.90;;;19.00;43.30;;;;;;5123010;27;20046;-38
2021/04/18 09:03:32;;;;;;;2.92;2.63;;;18.90;43.20;;;;;;5104745;27;20051;-38
2021/04/18 09:06:27;;;;;;;3.40;2.92;;;18.90;43.20;;;;;;5123026;27;20108;-38
2021/04/18 09:08:54;;;;;;;4.10;3.25;;;18.90;43.20;;;;;;5122044;27;20082;-38
2021/04/18 09:11:21;;;;;;;3.65;2.63;;;19.00;43.30;;;;;;5123177;27;20043;-38
2021/04/18 09:13:52;;;;;;;3.83;2.78;;;18.90;43.20;;;;;;5123116;27;20112;-38
2021/04/18 09:16:26;;;;;;;3.35;2.63;;;19.00;43.30;;;;;;5123147;27;20100;-39
2021/04/18 09:19:13;;;;;;;3.08;2.67;;;19.00;43.30;;;;;;5123350;27;20057;-38
2021/04/18 09:21:40;;;;;;;3.70;2.50;;;19.00;43.30;;;;;;5122078;27;20418;-38
2021/04/18 09:24:08;;;;;;;3.20;2.60;;;19.00;43.30;;;;;;5123011;27;20414;-39
2021/04/18 09:26:36;;;;;;;3.63;2.78;;;19.00;43.30;;;;;;5122091;27;20052;-38
2021/04/18 09:29:10;;;;;;;3.47;2.92;;;19.00;43.30;;;;;;5123044;27;20035;-39
2021/04/18 09:31:53;;;;;;;;;;;19.00;43.30;;;;;;5106104;27;20043;-38
2021/04/18 09:34:21;;;;;;;3.53;2.85;;;19.00;43.20;;;;;;5122747;27;19923;-38
2021/04/18 09:36:51;;;;;;;3.13;2.50;;;19.00;43.20;;;;;;5123950;27;20048;-38
2021/04/18 09:39:18;;;;;;;3.63;2.70;;;19.00;43.30;;;;;;5124386;27;20128;-38
2021/04/18 09:41:46;;;;;;;3.92;2.78;;;19.00;43.30;;;;;;5123018;27;20043;-38
2021/04/18 09:44:28;;;;;;;3.47;2.75;;;19.00;43.20;;;;;;5122325;27;20047;-38
2021/04/18 09:46:58;;;;;;;2.90;2.20;;;19.00;43.20;;;;;;5122264;27;20501;-38
2021/04/18 09:49:27;;;;;;;3.83;3.20;;;19.00;43.20;;;;;;5122583;27;20043;-38
2021/04/18 09:52:00;;;;;;;3.53;2.88;;;19.00;43.20;;;;;;5122543;27;20043;-38
2021/04/18 09:54:34;;;;;;;3.58;2.80;;;19.00;43.20;;;;;;5122804;28;20078;-39
2021/04/18 09:57:19;;;;;;;2.97;2.42;;;19.00;43.20;;;;;;5123276;27;20052;-36
2021/04/18 10:00:01;;;;;;;4.43;3.13;;;19.00;43.20;;;;;;5122563;27;20047;-38
2021/04/18 10:02:27;;;;;;;3.30;2.63;;;19.00;43.20;;;;;;5123961;27;20075;-38
2021/04/18 10:05:07;;;;;;;2.83;2.50;;;19.00;43.20;;;;;;5122890;27;20508;-38
2021/04/18 10:07:34;;;;;;;3.05;2.40;;;19.00;43.20;;;;;;5124318;27;20048;-39
2021/04/18 10:10:01;;;;;;;3.42;2.90;;;19.00;43.20;;;;;;5123516;27;20040;-39
2021/04/18 10:12:27;;;;;;;3.55;2.40;;;19.00;43.10;;;;;;5122356;28;20139;-38
2021/04/18 10:15:06;;;;;;;2.92;2.67;;;19.00;43.80;;;;;;5123059;28;20051;-38
2021/04/18 10:17:35;;;;;;;4.90;2.70;;;19.00;43.20;;;;;;5122257;27;20112;-38
2021/04/18 10:20:08;;;;;;;2.95;2.42;;;19.00;43.10;;;;;;5121747;28;20525;-39
2021/04/18 10:22:34;;;;;;;4.82;2.80;;;19.00;43.20;;;;;;5123424;27;20092;-38
2021/04/18 10:25:07;;;;;;;3.53;2.67;;;19.00;43.10;;;;;;5122551;27;20044;-38
2021/04/18 10:27:35;;;;;;;3.72;2.80;;;19.00;43.10;;;;;;5122064;27;20039;-38
2021/04/18 10:30:06;;;;;;;2.50;2.20;;;19.00;43.10;;;;;;5122092;28;20039;-38
2021/04/18 10:32:33;;;;;;;2.80;2.33;;;19.00;43.10;;;;;;5122074;28;20512;-39
2021/04/18 10:35:00;;;;;;;2.95;2.40;;;19.00;43.10;;;;;;5122021;27;20050;-39
2021/04/18 10:37:26;;;;;;;3.22;2.50;;;19.00;43.10;;;;;;5122877;27;20422;-38
2021/04/18 10:39:53;;;;;;;4.10;3.20;;;19.00;43.10;;;;;;5123262;27;20382;-38
2021/04/18 10:42:20;;;;;;;3.28;2.50;;;19.00;43.10;;;;;;5122127;27;20059;-39
2021/04/18 10:44:47;;;;;;;3.58;2.72;;;19.00;43.10;;;;;;5122765;27;20556;-39
2021/04/18 10:47:18;;;;;;;2.92;2.53;;;19.00;43.10;;;;;;5123081;28;20040;-38
2021/04/18 10:49:47;;;;;;;3.13;2.53;;;19.00;43.10;;;;;;5121192;28;20494;-38
2021/04/18 10:52:14;;;;;;;3.28;2.75;;;19.00;43.10;;;;;;5124677;27;20441;-38
2021/04/18 10:54:41;;;;;;;4.05;2.90;;;19.00;43.10;;;;;;5127451;27;20070;-38
2021/04/18 10:57:07;;;;;;;3.20;2.70;;;19.00;43.10;;;;;;5125074;27;20042;-39
2021/04/18 10:59:34;;;;;;;3.55;2.78;;;19.00;43.10;;;;;;5124723;27;20054;-38
2021/04/18 11:02:01;;;;;;;3.55;2.60;;;19.00;43.00;;;;;;5126662;27;20055;-38
2021/04/18 11:04:28;;;;;;;3.10;2.33;;;19.00;43.10;;;;;;5125763;27;20043;-39
2021/04/18 11:06:55;;;;;;;3.22;2.67;;;19.00;43.00;;;;;;5126772;27;20043;-39
2021/04/18 11:09:22;;;;;;;3.63;2.88;;;19.00;43.00;;;;;;5125094;27;20401;-38
2021/04/18 11:11:49;;;;;;;3.45;2.50;;;19.00;43.00;;;;;;5127181;27;20051;-39
2021/04/18 11:14:17;;;;;;;4.03;3.10;;;19.00;43.10;;;;;;5126363;27;20054;-39
2021/04/18 11:16:44;;;;;;;2.58;2.33;;;19.10;43.10;;;;;;5124699;27;20047;-38
2021/04/18 11:19:11;;;;;;;3.45;2.38;;;19.00;43.00;;;;;;5126855;27;20096;-39
2021/04/18 11:21:38;;;;;;;3.15;2.80;;;19.00;43.60;;;;;;5125726;27;20043;-39
2021/04/18 11:24:06;;;;;;;2.75;2.40;;;19.10;43.10;;;;;;5125262;27;20043;-38
2021/04/18 11:26:32;;;;;;;2.83;2.47;;;19.00;43.00;;;;;;5125081;27;20075;-39
2021/04/18 11:28:59;;;;;;;3.80;2.80;;;19.00;43.00;;;;;;5125882;27;20051;-38
2021/04/18 11:31:26;;;;;;;3.20;2.63;;;19.00;43.00;;;;;;5124912;27;20055;-39
2021/04/18 11:33:53;;;;;;;3.30;2.70;;;19.00;43.00;;;;;;5126312;27;20043;-37
2021/04/18 11:36:21;;;;;;;4.18;2.60;;;19.00;43.00;;;;;;5107464;27;20526;-37
2021/04/18 11:38:48;;;;;;;3.30;2.60;;;19.00;43.00;;;;;;5126249;27;20075;-39
2021/04/18 11:41:31;;;;;;;3.47;2.83;;;19.00;43.00;;;;;;5125516;27;20043;-39
2021/04/18 11:43:59;;;;;;;3.07;2.50;;;19.00;43.00;;;;;;5124260;27;20079;-38
2021/04/18 11:46:31;;;;;;;3.60;2.90;;;19.00;43.00;;;;;;5125162;27;20047;-39
2021/04/18 11:48:59;;;;;;;3.17;2.67;;;19.00;43.00;;;;;;5125320;27;20047;-38
2021/04/18 11:51:27;;;;;;;3.63;2.95;;;19.00;43.00;;;;;;5106873;27;20100;-39
2021/04/18 11:53:54;;;;;;;3.13;2.63;;;19.00;43.00;;;;;;5124661;27;20035;-39
2021/04/18 11:56:20;;;;;;;3.30;2.78;;;19.00;43.00;;;;;;5124505;27;20039;-39
2021/04/18 11:58:47;;;;;;;2.90;2.60;;;19.00;43.00;;;;;;5123214;27;20047;-39
2021/04/18 12:01:14;;;;;;;3.45;2.90;;;19.00;43.00;;;;;;5124256;27;20047;-38
2021/04/18 12:03:41;;;;;;;2.92;2.50;;;19.00;43.00;;;;;;5105323;27;20043;-37
2021/04/18 12:06:09;;;;;;;3.20;2.47;;;19.00;43.00;;;;;;5105833;27;20047;-36
2021/04/18 12:08:36;;;;;;;3.90;3.10;;;19.00;43.00;;;;;;5124830;27;20054;-36
2021/04/18 12:11:04;;;;;;;2.75;2.35;;;19.00;43.00;;;;;;5124882;27;20551;-36
2021/04/18 12:13:31;;;;;;;2.95;2.65;;;19.00;43.00;;;;;;5123048;27;20049;-39
2021/04/18 12:15:59;;;;;;;2.92;2.40;;;19.00;43.00;;;;;;5123308;27;20070;-38
2021/04/18 12:18:25;;;;;;;3.75;3.05;;;19.00;43.10;;;;;;5125967;27;20128;-38
2021/04/18 12:20:53;;;;;;;3.17;2.40;;;19.00;43.00;;;;;;5127743;27;20051;-38
2021/04/18 12:23:19;;;;;;;3.33;2.78;;;19.00;43.00;;;;;;5117556;27;20047;-38
2021/04/18 12:25:46;;;;;;;3.53;2.88;;;19.00;43.00;;;;;;5119506;27;20043;-38
2021/04/18 12:28:13;;;;;;;3.22;2.60;;;19.00;43.10;;;;;;5134477;27;20039;-38
2021/04/18 12:30:41;;;;;;;3.45;2.83;;;19.00;43.00;;;;;;5132114;27;20035;-38
2021/04/18 12:33:08;;;;;;;3.40;2.60;;;19.00;43.00;;;;;;5116801;27;20035;-38
2021/04/18 12:35:35;;;;;;;2.95;2.45;;;19.00;43.00;;;;;;5125834;27;20058;-39
2021/04/18 12:38:02;;;;;;;3.58;2.80;;;19.10;43.10;;;;;;5115253;27;20418;-38
2021/04/18 12:40:29;;;;;;;3.60;2.50;;;19.00;43.00;;;;;;5132460;27;20131;-39
2021/04/18 12:42:56;;;;;;;3.30;2.80;;;19.00;43.00;;;;;;5115996;27;20047;-38
2021/04/18 12:45:23;;;;;;;4.10;2.65;;;19.00;43.00;;;;;;5130697;27;20454;-39
2021/04/18 12:47:50;;;;;;;2.80;2.45;;;19.00;43.00;;;;;;5114471;27;20051;-38
2021/04/18 12:50:17;;;;;;;4.03;2.78;;;19.00;43.00;;;;;;5131583;27;20100;-38
2021/04/18 12:52:44;;;;;;;3.28;2.45;;;19.00;43.00;;;;;;5134037;27;20387;-39
2021/04/18 12:55:12;;;;;;;3.00;2.40;;;19.00;42.90;;;;;;5130873;27;20458;-38